Time;durP1;ratioP1;P1;durP2;ratioP2;P2;SDS_P1;SDS_P2;PMS_P1;PMS_P2;Temp;Humidity;BMP_temperature;BMP_pressure;BME280_temperature;BME280_humidity;BME280_pressure;Samples;Min_cycle;Max_cycle;Signal;HPM_P1;HPM_P2
2021/05/27 00:01:46;;;;;;;;;;;;;;;9.03;95.61;100542.25;6213403;28;19953;-71
2021/05/27 00:04:53;;;;;;;;;;;;;;;9.03;95.57;100534.09;6212993;28;20192;-71
2021/05/27 00:07:58;;;;;;;;;;;;;;;9.05;95.55;100530.13;6217675;28;20217;-70
2021/05/27 00:11:01;;;;;;;;;;;;;;;9.13;95.51;100526.31;6218687;28;19940;-71
2021/05/27 00:14:04;;;;;;;;;;;;;;;9.09;94.36;100530.53;6218559;28;19918;-71
2021/05/27 00:17:08;;;;;;;;;;;;;;;9.09;94.54;100519.66;6218142;28;19964;-71
2021/05/27 00:20:13;;;;;;;;;;;;;;;9.02;94.70;100532.41;6218041;28;19925;-71
2021/05/27 00:23:17;;;;;;;;;;;;;;;9.01;94.25;100533.50;6217002;28;20176;-71
2021/05/27 00:26:20;;;;;;;;;;;;;;;9.03;93.96;100543.09;6216968;28;19924;-71
2021/05/27 00:29:28;;;;;;;;;;;;;;;9.09;94.15;100541.41;6217226;28;19918;-71
2021/05/27 00:32:32;;;;;;;;;;;;;;;9.05;94.61;100545.59;6216828;28;20109;-71
2021/05/27 00:35:36;;;;;;;;;;;;;;;9.04;94.01;100555.66;6217959;28;19918;-70
2021/05/27 00:38:39;;;;;;;;;;;;;;;9.06;94.00;100541.84;6217616;28;19925;-70
2021/05/27 00:41:43;;;;;;;;;;;;;;;8.94;92.88;100548.97;6216606;28;20142;-70
2021/05/27 00:44:56;;;;;;;;;;;;;;;9.00;94.20;100553.56;6200538;28;19918;-70
2021/05/27 00:48:00;;;;;;;;;;;;;;;8.94;95.15;100563.41;6199570;28;20146;-70
2021/05/27 00:51:05;;;;;;;0.95;0.95;;;;;;;9.05;94.36;100553.75;6232105;28;19972;-70
2021/05/27 00:54:10;;;;;;;0.90;0.90;;;;;;;9.07;93.63;100557.94;6215767;28;20448;-70
2021/05/27 00:57:23;;;;;;;0.98;0.98;;;;;;;8.99;93.36;100563.63;6215754;28;20525;-71
2021/05/27 01:00:28;;;;;;;0.60;0.60;;;;;;;8.89;93.77;100546.06;6198542;28;20410;-70
2021/05/27 01:03:32;;;;;;;0.80;0.80;;;;;;;8.99;93.04;100557.34;6215679;28;20285;-70
2021/05/27 01:06:37;;;;;;;0.90;0.90;;;;;;;9.04;93.32;100568.44;6216557;28;20201;-70
2021/05/27 01:09:41;;;;;;;0.80;0.80;;;;;;;9.05;92.99;100561.94;6216774;28;20193;-71
2021/05/27 01:12:45;;;;;;;1.73;0.80;;;;;;;8.87;93.37;100565.31;6198395;28;20205;-71
2021/05/27 01:15:49;;;;;;;0.80;0.80;;;;;;;8.80;93.26;100562.63;6215993;28;20265;-71
2021/05/27 01:18:52;;;;;;;0.80;0.80;;;;;;;8.58;94.42;100561.19;6216157;28;20193;-71
2021/05/27 01:21:59;;;;;;;0.93;0.80;;;;;;;8.89;94.24;100567.81;6197895;28;20226;-70
2021/05/27 01:25:06;;;;;;;0.60;0.60;;;;;;;8.71;92.95;100554.88;6198288;28;20237;-70
2021/05/27 01:28:11;;;;;;;0.90;0.90;;;;;;;8.67;93.48;100565.38;6198315;28;20205;-70
2021/05/27 01:31:15;;;;;;;0.70;0.70;;;;;;;8.58;94.75;100554.91;6198923;28;20206;-70
2021/05/27 01:34:19;;;;;;;0.80;0.80;;;;;;;8.50;93.89;100526.03;6197748;28;20276;-70
2021/05/27 01:37:24;;;;;;;0.80;0.80;;;;;;;8.73;95.00;100563.69;6215982;28;20187;-70
2021/05/27 01:40:27;;;;;;;0.73;0.73;;;;;;;8.83;94.55;100554.03;6197704;28;20202;-70
2021/05/27 01:43:34;;;;;;;0.82;0.82;;;;;;;8.90;95.04;100558.63;6198346;28;20202;-70
2021/05/27 01:46:37;;;;;;;0.80;0.80;;;;;;;8.94;95.22;100568.03;6215606;28;20225;-71
2021/05/27 01:49:41;;;;;;;1.48;0.73;;;;;;;8.75;94.19;100565.16;6198388;28;20241;-71
2021/05/27 01:52:46;;;;;;;0.70;0.70;;;;;;;8.82;94.36;100571.41;6197576;28;20524;-71
2021/05/27 01:55:51;;;;;;;2.92;0.80;;;;;;;8.81;93.46;100564.28;6197539;28;20600;-71
2021/05/27 01:59:02;;;;;;;0.60;0.60;;;;;;;8.83;94.28;100567.63;6198333;28;20225;-71
2021/05/27 02:02:08;;;;;;;0.75;0.75;;;;;;;8.74;93.05;100566.19;6198160;28;20240;-71
2021/05/27 02:05:13;;;;;;;1.55;0.80;;;;;;;8.67;93.05;100573.53;6214203;28;20237;-71
2021/05/27 02:08:21;;;;;;;1.55;0.80;;;;;;;8.66;94.03;100552.81;6197252;28;20497;-71
2021/05/27 02:11:29;;;;;;;0.70;0.70;;;;;;;8.73;93.76;100580.81;6215362;28;20198;-71
2021/05/27 02:14:36;;;;;;;0.93;0.70;;;;;;;8.78;93.09;100583.75;6197077;28;20208;-71
2021/05/27 02:17:39;;;;;;;0.80;0.80;;;;;;;8.65;94.54;100578.31;6215013;28;20239;-71
2021/05/27 02:20:44;;;;;;;0.68;0.68;;;;;;;8.66;94.00;100587.31;6196904;28;20208;-70
2021/05/27 02:23:53;;;;;;;0.75;0.75;;;;;;;8.55;93.28;100561.59;6196874;28;20282;-71
2021/05/27 02:27:00;;;;;;;0.80;0.80;;;;;;;8.67;94.71;100589.84;6196858;28;20240;-71
2021/05/27 02:30:06;;;;;;;0.73;0.73;;;;;;;8.62;94.43;100562.44;6213076;28;20308;-71
2021/05/27 02:33:11;;;;;;;0.63;0.63;;;;;;;8.58;93.64;100582.09;6228649;28;20206;-71
2021/05/27 02:36:17;;;;;;;1.10;0.80;;;;;;;8.67;94.26;100591.72;6196313;28;20202;-71
2021/05/27 02:39:22;;;;;;;0.70;0.70;;;;;;;8.69;94.75;100595.91;6214297;28;20193;-71
2021/05/27 02:42:29;;;;;;;0.60;0.60;;;;;;;8.72;94.44;100590.03;6214424;28;20277;-71
2021/05/27 02:45:33;;;;;;;0.80;0.80;;;;;;;8.83;93.74;100597.53;6195578;28;20422;-70
2021/05/27 02:48:38;;;;;;;0.70;0.70;;;;;;;8.77;94.99;100592.97;6214562;28;20186;-70
2021/05/27 02:51:42;;;;;;;0.70;0.70;;;;;;;8.79;95.09;100585.44;6196005;28;20250;-70
2021/05/27 02:54:46;;;;;;;1.13;0.70;;;;;;;8.71;93.83;100582.09;6214444;28;20186;-70
2021/05/27 02:57:53;;;;;;;0.70;0.70;;;;;;;8.88;93.77;100599.66;6196009;28;20276;-70
2021/05/27 03:00:58;;;;;;;0.80;0.80;;;;;;;8.81;94.46;100588.75;6196059;28;20321;-70
2021/05/27 03:04:03;;;;;;;0.80;0.80;;;;;;;8.86;95.09;100595.47;6213449;28;20240;-70
2021/05/27 03:07:07;;;;;;;0.70;0.70;;;;;;;8.78;94.86;100597.34;6212723;28;20253;-70
2021/05/27 03:10:12;;;;;;;0.80;0.80;;;;;;;8.72;93.13;100606.38;6196051;28;20456;-70
2021/05/27 03:13:17;;;;;;;0.70;0.70;;;;;;;8.75;93.69;100608.66;6196732;28;20245;-70
2021/05/27 03:16:25;;;;;;;0.75;0.75;;;;;;;8.81;94.77;100599.66;6212644;28;20415;-70
2021/05/27 03:19:30;;;;;;;0.80;0.80;;;;;;;8.89;93.57;100606.75;6213866;28;20232;-70
2021/05/27 03:22:34;;;;;;;0.80;0.80;;;;;;;8.88;92.97;100599.66;6227681;28;20236;-70
2021/05/27 03:25:41;;;;;;;0.70;0.70;;;;;;;8.87;92.35;100599.84;6195805;28;20278;-70
2021/05/27 03:28:46;;;;;;;0.88;0.88;;;;;;;8.86;93.43;100600.91;6213552;28;20269;-70
2021/05/27 03:31:51;;;;;;;0.88;0.88;;;;;;;8.85;93.48;100605.50;6195204;28;20293;-71
2021/05/27 03:34:55;;;;;;;1.50;0.90;;;;;;;8.83;92.96;100603.00;6213449;28;20186;-71
2021/05/27 03:38:01;;;;;;;0.80;0.80;;;;;;;8.68;92.35;100609.69;6212295;28;20186;-71
2021/05/27 03:41:07;;;;;;;0.70;0.70;;;;;;;8.93;92.21;100612.63;6195891;28;20249;-71
2021/05/27 03:44:11;;;;;;;0.70;0.70;;;;;;;8.61;92.33;100615.16;6228460;28;20360;-70
2021/05/27 03:47:19;;;;;;;0.90;0.90;;;;;;;8.63;93.30;100613.06;6213492;28;20252;-70
2021/05/27 03:50:25;;;;;;;0.80;0.80;;;;;;;8.60;94.15;100610.75;6195857;28;20282;-70
2021/05/27 03:53:30;;;;;;;1.17;0.80;;;;;;;8.73;93.21;100615.38;6194858;28;20238;-70
2021/05/27 03:56:41;;;;;;;0.80;0.80;;;;;;;8.80;92.17;100625.19;6195398;28;20521;-71
2021/05/27 04:03:24;;;;;;;0.80;0.80;;;;;;;8.85;92.80;100618.28;6211796;28;20346;-71
2021/05/27 04:09:50;;;;;;;0.70;0.70;;;;;;;8.79;91.48;100612.63;6211902;28;20516;-71
2021/05/27 04:12:54;;;;;;;0.80;0.80;;;;;;;8.66;92.46;100618.06;6213102;28;20191;-70
2021/05/27 04:15:58;;;;;;;0.70;0.70;;;;;;;8.71;92.23;100612.84;6213306;28;20187;-70
2021/05/27 04:19:02;;;;;;;0.60;0.60;;;;;;;8.57;92.67;100619.34;6212958;28;20192;-71
2021/05/27 04:22:06;;;;;;;0.85;0.75;;;;;;;8.66;92.79;100618.06;6211879;28;20410;-70
2021/05/27 04:25:13;;;;;;;1.42;1.40;;;;;;;8.90;94.34;100621.19;6211809;28;20249;-70
2021/05/27 04:28:37;;;;;;;;;;;;;;;8.83;92.36;100630.19;6213709;28;20053;-71
2021/05/27 04:31:40;;;;;;;;;;;;;;;8.76;92.77;100618.50;6228786;28;19989;-71
2021/05/27 04:34:44;;;;;;;0.80;0.80;;;;;;;8.74;92.33;100628.75;6195361;28;19989;-71
2021/05/27 04:37:47;;;;;;;0.90;0.80;;;;;;;8.75;91.74;100626.88;6212646;28;20225;-70
2021/05/27 04:40:51;;;;;;;0.73;0.73;;;;;;;8.69;91.08;100623.09;6211666;28;20375;-70
2021/05/27 04:43:57;;;;;;;0.73;0.73;;;;;;;8.61;92.42;100636.06;6212653;28;20226;-70
2021/05/27 04:47:00;;;;;;;1.20;0.70;;;;;;;8.67;92.04;100630.63;6212892;28;20226;-71
2021/05/27 04:50:07;;;;;;;0.70;0.70;;;;;;;8.71;93.15;100612.84;6211959;28;20461;-70
2021/05/27 04:53:11;;;;;;;1.65;0.70;;;;;;;8.87;91.55;100627.06;6216980;28;20257;-70
2021/05/27 04:56:14;;;;;;;0.90;0.90;;;;;;;8.76;92.01;100618.50;6216371;28;20190;-70
2021/05/27 04:59:19;;;;;;;0.80;0.80;;;;;;;8.54;91.36;100630.63;6217204;28;20265;-70
2021/05/27 05:02:23;;;;;;;0.70;0.70;;;;;;;8.79;93.02;100615.34;6216930;28;20289;-70
2021/05/27 05:05:27;;;;;;;;;;;;;;;8.89;92.29;100630.41;6216589;28;20109;-71
2021/05/27 05:08:30;;;;;;;;;;;;;;;8.87;90.92;100624.34;6215979;28;20152;-70
2021/05/27 05:11:34;;;;;;;;;;;;;;;8.67;90.60;100630.63;6217150;28;19953;-70
2021/05/27 05:14:38;;;;;;;;;;;;;;;8.81;91.40;100636.88;6216011;28;20205;-70
2021/05/27 05:17:41;;;;;;;;;;;;;;;8.54;91.65;100644.22;6216891;28;19922;-70
2021/05/27 05:20:46;;;;;;;;;;;;;;;8.62;90.29;100633.16;6215797;28;20155;-69
2021/05/27 05:23:49;;;;;;;0.70;0.70;;;;;;;8.75;90.81;100627.72;6216557;28;19992;-70
2021/05/27 05:26:53;;;;;;;0.70;0.70;;;;;;;8.83;89.31;100635.63;6216397;28;20250;-70
2021/05/27 05:29:57;;;;;;;0.70;0.70;;;;;;;8.81;90.79;100639.59;6216000;28;20186;-69
2021/05/27 05:33:03;;;;;;;0.77;0.77;;;;;;;8.87;89.80;100640.66;6216060;28;20278;-70
2021/05/27 05:36:07;;;;;;;0.60;0.60;;;;;;;8.92;88.73;100638.97;6214676;28;20273;-70
2021/05/27 05:39:10;;;;;;;0.70;0.70;;;;;;;8.83;88.39;100630.19;6215408;28;20186;-70
2021/05/27 05:42:14;;;;;;;0.70;0.70;;;;;;;8.94;88.37;100641.47;6215575;28;20186;-70
2021/05/27 05:45:20;;;;;;;0.80;0.80;;;;;;;8.76;89.30;100653.84;6214921;28;20481;-70
2021/05/27 05:48:23;;;;;;;0.70;0.70;;;;;;;8.58;88.93;100648.19;6216219;28;20192;-71
2021/05/27 05:51:27;;;;;;;1.45;0.80;;;;;;;8.69;88.54;100644.84;6214863;28;20229;-71
2021/05/27 05:54:31;;;;;;;0.70;0.70;;;;;;;8.68;89.46;100654.06;6214422;28;20542;-71
2021/05/27 05:57:34;;;;;;;0.80;0.80;;;;;;;8.81;89.65;100653.22;6214918;28;20193;-71
2021/05/27 06:00:40;;;;;;;0.77;0.77;;;;;;;8.62;89.42;100644.03;6214126;28;20473;-71
2021/05/27 06:03:45;;;;;;;0.80;0.80;;;;;;;8.74;88.38;100652.38;6213742;28;20237;-71
2021/05/27 06:06:51;;;;;;;0.80;0.80;;;;;;;8.76;89.18;100651.13;6214197;28;20374;-71
2021/05/27 06:09:56;;;;;;;0.80;0.80;;;;;;;8.71;89.59;100642.75;6213836;28;20187;-71
2021/05/27 06:12:59;;;;;;;0.80;0.80;;;;;;;8.88;90.03;100653.22;6213809;28;20476;-71
2021/05/27 06:16:04;;;;;;;0.80;0.80;;;;;;;8.42;88.17;100643.19;6215201;28;20186;-70
2021/05/27 06:19:08;;;;;;;0.80;0.80;;;;;;;8.50;89.93;100642.16;6213840;28;20416;-70
2021/05/27 06:22:17;;;;;;;0.85;0.85;;;;;;;8.81;90.71;100659.50;6214639;28;20198;-72
2021/05/27 06:25:25;;;;;;;0.60;0.60;;;;;;;8.85;90.54;100664.53;6195840;28;20227;-71
2021/05/27 06:28:29;;;;;;;0.85;0.85;;;;;;;8.82;91.44;100655.75;6214765;28;20193;-70
2021/05/27 06:31:33;;;;;;;0.57;0.57;;;;;;;8.75;90.63;100660.34;6214946;28;20186;-71
2021/05/27 06:34:38;;;;;;;0.68;0.68;;;;;;;8.69;90.94;100669.34;6213414;28;20190;-71
2021/05/27 06:37:44;;;;;;;0.77;0.77;;;;;;;8.65;91.06;100676.22;6214414;28;20193;-71
2021/05/27 06:40:48;;;;;;;0.80;0.80;;;;;;;8.70;92.32;100690.06;6213381;28;20421;-71
2021/05/27 06:43:51;;;;;;;0.80;0.80;;;;;;;8.90;90.16;100667.44;6214423;28;20221;-72
2021/05/27 06:46:56;;;;;;;1.00;0.70;;;;;;;9.04;89.83;100674.56;6214143;28;20233;-71
2021/05/27 06:50:00;;;;;;;0.68;0.68;;;;;;;8.78;88.17;100676.22;6214063;28;20254;-70
2021/05/27 06:53:05;;;;;;;2.70;1.00;;;;;;;8.89;89.31;100687.53;6214125;28;20194;-71
2021/05/27 06:56:09;;;;;;;0.60;0.60;;;;;;;8.82;88.04;100702.00;6214307;28;20218;-71
2021/05/27 06:59:13;;;;;;;0.60;0.60;;;;;;;8.75;87.86;100698.44;6212827;28;20187;-71
2021/05/27 07:02:17;;;;;;;0.70;0.70;;;;;;;8.71;87.87;100697.16;6211785;28;20451;-71
2021/05/27 07:05:21;;;;;;;;;;;;;;;8.72;88.43;100692.56;6214058;28;20306;-70
2021/05/27 07:08:24;;;;;;;;;;;;;;;8.77;88.09;100688.19;6214669;28;19924;-71
2021/05/27 07:11:28;;;;;;;;;;;;;;;8.86;89.77;100704.28;6214600;28;19922;-70
2021/05/27 07:14:31;;;;;;;;;;;;;;;8.78;89.77;100703.44;6213895;28;19918;-70
2021/05/27 07:17:36;;;;;;;;;;;;;;;8.75;89.68;100698.44;6214292;28;19918;-70
2021/05/27 07:20:42;;;;;;;;;;;;;;;8.66;88.29;100705.09;6214094;28;19917;-71
2021/05/27 07:23:45;;;;;;;;;;;;;;;8.75;89.14;100703.88;6214289;28;19918;-72
2021/05/27 07:26:49;;;;;;;;;;;;;;;8.65;89.08;100702.59;6214432;28;19980;-72
2021/05/27 07:29:52;;;;;;;;;;;;;;;8.71;89.39;100710.75;6214149;28;19980;-71
2021/05/27 07:32:57;;;;;;;;;;;;;;;8.76;88.45;100718.28;6214108;28;19925;-71
2021/05/27 07:36:01;;;;;;;;;;;;;;;8.63;89.36;100721.00;6213106;28;20082;-71
2021/05/27 07:39:04;;;;;;;;;;;;;;;8.61;89.63;100723.94;6213132;28;20105;-71
2021/05/27 07:42:08;;;;;;;;;;;;;;;8.62;90.06;100731.06;6195753;28;20147;-71
2021/05/27 07:45:13;;;;;;;;;;;;;;;8.75;90.51;100727.50;6214204;28;19933;-71
2021/05/27 07:48:17;;;;;;;;;;;;;;;8.70;89.17;100733.59;6213901;28;19929;-71
2021/05/27 07:51:21;;;;;;;;;;;;;;;8.40;89.61;100732.25;6213935;28;19941;-71
2021/05/27 07:54:24;;;;;;;;;;;;;;;8.44;91.14;100744.41;6214167;28;19985;-71
2021/05/27 07:57:28;;;;;;;;;;;;;;;8.34;92.42;100743.13;6212897;28;19918;-71
2021/05/27 08:00:31;;;;;;;3.90;3.50;;;;;;;8.49;93.34;100758.22;6212884;28;19953;-71
2021/05/27 08:03:36;;;;;;;0.90;0.90;;;;;;;8.48;92.17;100761.97;6212720;28;20304;-70
2021/05/27 08:06:40;;;;;;;;;;;;;;;8.29;92.25;100757.31;6213769;28;19922;-70
2021/05/27 08:09:44;;;;;;;;;;;;;;;8.39;91.70;100752.34;6212713;28;20165;-72
2021/05/27 08:12:47;;;;;;;;;;;;;;;8.34;90.11;100754.84;6212648;28;19964;-70
2021/05/27 08:15:50;;;;;;;;;;;;;;;8.38;90.64;100766.13;6213727;28;19945;-71
2021/05/27 08:18:55;;;;;;;;;;;;;;;8.48;88.61;100761.97;6212241;28;20033;-71
2021/05/27 08:21:58;;;;;;;;;;;;;;;8.49;89.17;100763.66;6213457;28;19917;-70
2021/05/27 08:25:02;;;;;;;;;;;;;;;8.45;89.56;100762.38;6212345;28;19924;-70
2021/05/27 08:28:08;;;;;;;;;;;;;;;8.52;88.83;100757.81;6216599;28;19918;-70
2021/05/27 08:31:11;;;;;;;;;;;;;;;8.47;88.35;100765.75;6218070;28;19917;-70
2021/05/27 08:34:16;;;;;;;;;;;;;;;8.54;89.04;100766.59;6218043;28;19989;-70
2021/05/27 08:37:19;;;;;;;;;;;;;;;8.39;87.95;100768.66;6218037;28;19917;-70
2021/05/27 08:40:23;;;;;;;;;;;;;;;8.44;88.54;100774.31;6218348;28;19918;-70
2021/05/27 08:43:27;;;;;;;;;;;;;;;8.60;87.88;100765.75;6217727;28;19968;-70
2021/05/27 08:46:31;;;;;;;;;;;;;;;8.52;87.14;100767.84;6217999;28;19925;-69
2021/05/27 08:49:36;;;;;;;;;;;;;;;8.46;87.28;100783.09;6217761;28;19924;-70
2021/05/27 08:52:39;;;;;;;;;;;;;;;8.42;88.54;100784.56;6216934;28;19917;-71
2021/05/27 08:55:43;;;;;;;;;;;;;;;8.39;88.24;100784.97;6217972;28;19924;-71
2021/05/27 08:58:47;;;;;;;;;;;;;;;8.24;88.26;100792.41;6216536;28;19918;-71
2021/05/27 09:02:00;;;;;;;;;;;;;;;8.06;89.05;100786.69;6216446;28;19953;-71
2021/05/27 09:05:15;;;;;;;;;;;;;;;8.08;89.31;100792.75;6216377;28;20197;-71
2021/05/27 09:08:29;;;;;;;;;;;;;;;8.31;90.43;100800.59;6217340;28;19917;-70
2021/05/27 09:11:36;;;;;;;;;;;;;;;8.21;90.00;100803.66;6217672;28;19918;-69
2021/05/27 09:14:43;;;;;;;;;;;;;;;8.42;90.71;100817.19;6217474;28;20004;-70
2021/05/27 09:17:48;;;;;;;;;;;;;;;8.37;88.17;100811.47;6216173;28;19975;-70
2021/05/27 09:20:52;;;;;;;;;;;;;;;8.14;88.95;100819.09;6216056;28;19991;-70
2021/05/27 09:23:56;;;;;;;;;;;;;;;8.25;87.79;100821.25;6217247;28;19925;-70
2021/05/27 09:26:59;;;;;;;;;;;;;;;8.35;88.71;100821.72;6216686;28;19957;-69
2021/05/27 09:30:05;;;;;;;;;;;;;;;8.29;87.84;100827.16;6216643;28;19968;-70
2021/05/27 09:33:13;;;;;;;;;;;;;;;8.36;88.27;100826.13;6216631;28;19925;-70
2021/05/27 09:36:19;;;;;;;;;;;;;;;8.34;87.15;100828.22;6216694;28;19918;-70
2021/05/27 09:39:22;;;;;;;;;;;;;;;8.26;87.38;100828.38;6216468;28;19989;-70
2021/05/27 09:42:26;;;;;;;;;;;;;;;8.31;87.88;100825.91;6216746;28;19992;-70
2021/05/27 09:45:30;;;;;;;;;;;;;;;8.17;88.24;100843.16;6216190;28;19935;-70
2021/05/27 09:48:34;;;;;;;;;;;;;;;8.01;89.51;100847.03;6215265;28;19924;-70
2021/05/27 09:51:39;;;;;;;;;;;;;;;8.08;89.22;100838.94;6216375;28;19933;-70
2021/05/27 09:54:52;;;;;;;;;;;;;;;8.19;89.04;100846.53;6216288;28;19953;-70
2021/05/27 09:58:06;;;;;;;;;;;;;;;8.22;89.30;100848.81;6216474;28;19921;-70
2021/05/27 10:01:09;;;;;;;;;;;;;;;7.99;88.17;100848.28;6216110;28;19924;-71
2021/05/27 10:04:13;;;;;;;;;;;;;;;8.08;88.67;100852.53;6214477;28;19985;-71
2021/05/27 10:07:32;;;;;;;;;;;;;;;8.16;89.75;100855.06;6214945;28;20145;-71
2021/05/27 10:10:36;;;;;;;;;;;;;;;8.08;89.24;100852.53;6215980;28;19956;-70
2021/05/27 10:13:43;;;;;;;;;;;;;;;8.08;90.75;100847.09;6216016;28;19964;-70
2021/05/27 10:16:47;;;;;;;0.60;0.60;;;;;;;8.19;92.15;100852.78;6215626;28;19921;-70
2021/05/27 10:19:51;;;;;;;1.17;0.90;;;;;;;8.29;89.96;100854.34;6214312;28;20240;-70
2021/05/27 10:22:56;;;;;;;3.23;0.70;;;;;;;8.20;91.68;100830.00;6215118;28;20269;-70
2021/05/27 10:26:01;;;;;;;1.67;0.77;;;;;;;8.44;90.25;100858.59;6214833;28;20210;-70
2021/05/27 10:29:06;;;;;;;0.65;0.65;;;;;;;8.51;90.72;100867.59;6213689;28;20516;-70
2021/05/27 10:32:11;;;;;;;1.02;0.70;;;;;;;8.35;89.76;100865.22;6214460;28;20186;-70
2021/05/27 10:35:15;;;;;;;0.70;0.70;;;;;;;8.24;89.77;100879.38;6213615;28;20190;-70
2021/05/27 10:39:00;;;;;;;0.55;0.55;;;;;;;8.55;92.04;100871.59;6214835;28;20194;-70
2021/05/27 10:42:06;;;;;;;1.38;0.70;;;;;;;8.59;90.95;100866.59;6179874;28;20500;-70
2021/05/27 10:45:10;;;;;;;0.77;0.77;;;;;;;8.53;90.44;100867.41;6213283;28;20214;-70
2021/05/27 10:48:27;;;;;;;0.80;0.80;;;;;;;8.34;89.98;100860.84;6212971;28;20190;-70
2021/05/27 10:51:34;;;;;;;0.65;0.65;;;;;;;8.00;90.43;100868.97;6213114;28;20248;-70
2021/05/27 10:54:38;;;;;;;0.70;0.70;;;;;;;8.20;91.18;100884.38;6213049;28;20529;-70
2021/05/27 10:57:49;;;;;;;1.67;0.82;;;;;;;8.30;90.96;100869.59;6214034;28;20186;-70
2021/05/27 11:00:54;;;;;;;1.55;0.70;;;;;;;8.23;90.88;100872.25;6213290;28;20186;-69
2021/05/27 11:03:59;;;;;;;1.73;1.52;;;;;;;8.41;92.02;100875.31;6214516;28;20288;-71
2021/05/27 11:07:24;;;;;;;4.30;0.80;;;;;;;8.50;91.18;100871.34;6214278;28;20273;-70
2021/05/27 11:10:29;;;;;;;0.70;0.70;;;;;;;8.41;91.61;100869.03;6213057;28;20257;-69
2021/05/27 11:13:34;;;;;;;0.70;0.70;;;;;;;8.45;91.16;100882.00;6213970;28;20193;-71
2021/05/27 11:17:24;;;;;;;0.60;0.60;;;;;;;8.49;90.55;100872.41;6213018;28;20190;-70
2021/05/27 11:20:32;;;;;;;0.52;0.52;;;;;;;8.33;89.37;100872.75;6213161;28;20232;-70
2021/05/27 11:23:36;;;;;;;1.02;0.70;;;;;;;8.47;91.31;100874.50;6213173;28;20503;-71
2021/05/27 11:26:39;;;;;;;0.60;0.60;;;;;;;8.70;91.61;100875.03;6213959;28;20276;-70
2021/05/27 11:30:14;;;;;;;0.55;0.55;;;;;;;8.61;89.49;100869.94;6212570;28;20453;-71
2021/05/27 11:33:32;;;;;;;0.60;0.60;;;;;;;8.69;90.19;100867.91;6213025;28;20372;-70
2021/05/27 11:36:36;;;;;;;0.55;0.55;;;;;;;8.63;90.81;100867.84;6212536;28;20190;-71
2021/05/27 11:39:39;;;;;;;0.60;0.60;;;;;;;8.24;89.97;100878.53;6213617;28;20193;-71
2021/05/27 11:42:51;;;;;;;1.13;0.52;;;;;;;8.43;90.05;100883.25;6213719;28;20371;-72
2021/05/27 11:45:57;;;;;;;0.70;0.70;;;;;;;8.65;90.89;100877.47;6212398;28;20213;-72
2021/05/27 11:49:01;;;;;;;0.70;0.70;;;;;;;8.87;91.36;100880.06;6213684;28;20234;-72
2021/05/27 11:52:17;;;;;;;0.70;0.70;;;;;;;8.95;92.00;100888.91;6213343;28;20208;-71
2021/05/27 11:55:24;;;;;;;0.50;0.50;;;;;;;8.83;89.59;100882.38;6213723;28;20190;-71
2021/05/27 11:58:38;;;;;;;0.75;0.75;;;;;;;8.61;89.83;100876.22;6212331;28;20190;-71
2021/05/27 12:01:44;;;;;;;1.08;0.60;;;;;;;8.56;88.92;100895.03;6215535;28;20194;-71
2021/05/27 12:04:48;;;;;;;1.02;0.60;;;;;;;8.74;90.10;100892.59;6218222;28;20237;-71
2021/05/27 12:08:00;;;;;;;0.50;0.50;;;;;;;8.80;89.74;100897.25;6217053;28;20209;-70
2021/05/27 12:11:04;;;;;;;0.50;0.50;;;;;;;9.03;90.32;100896.03;6218185;28;20193;-71
2021/05/27 12:14:10;;;;;;;0.63;0.52;;;;;;;8.99;89.37;100875.72;6218331;28;20186;-74
2021/05/27 12:17:23;;;;;;;0.73;0.73;;;;;;;9.00;90.54;100874.66;6218166;28;20205;-71
2021/05/27 12:20:32;;;;;;;0.50;0.50;;;;;;;9.17;90.20;100904.03;6217138;28;20423;-71
2021/05/27 12:23:36;;;;;;;0.50;0.50;;;;;;;8.95;90.21;100902.50;6218032;28;20217;-71
2021/05/27 12:26:48;;;;;;;1.17;0.70;;;;;;;9.05;90.59;100904.81;6216847;28;20469;-70
2021/05/27 12:29:52;;;;;;;0.68;0.68;;;;;;;9.20;89.36;100902.75;6217729;28;20219;-70
2021/05/27 12:32:57;;;;;;;0.77;0.77;;;;;;;9.19;91.13;100904.66;6200159;28;20363;-71
2021/05/27 12:36:05;;;;;;;0.65;0.65;;;;;;;8.94;89.40;100898.09;6217752;28;20253;-70
2021/05/27 12:39:09;;;;;;;0.70;0.70;;;;;;;8.93;89.42;100911.91;6216558;28;20186;-70
2021/05/27 12:42:13;;;;;;;0.50;0.50;;;;;;;8.89;88.14;100910.63;6216672;28;20198;-71
2021/05/27 12:45:27;;;;;;;0.50;0.50;;;;;;;8.57;88.30;100912.19;6217607;28;20210;-70
2021/05/27 12:48:32;;;;;;;0.63;0.50;;;;;;;8.60;89.33;100917.25;6217503;28;20265;-71
2021/05/27 12:51:40;;;;;;;0.60;0.60;;;;;;;8.63;91.20;100912.22;6217505;28;20209;-71
2021/05/27 12:54:44;;;;;;;0.65;0.65;;;;;;;8.59;89.95;100910.94;6199657;28;20202;-71
2021/05/27 12:57:51;;;;;;;0.60;0.60;;;;;;;8.70;91.59;100928.56;6217439;28;20196;-70
2021/05/27 13:00:55;;;;;;;0.50;0.50;;;;;;;8.61;89.55;100936.06;6216099;28;20370;-69
2021/05/27 13:04:01;;;;;;;0.98;0.75;;;;;;;8.62;91.14;100940.47;6199065;28;20237;-70
2021/05/27 13:07:07;;;;;;;0.82;0.82;;;;;;;8.59;91.16;100935.44;6215638;28;20210;-70
2021/05/27 13:10:30;;;;;;;0.50;0.50;;;;;;;8.51;89.33;100941.03;6216702;28;20186;-70
2021/05/27 13:13:34;;;;;;;0.90;0.70;;;;;;;8.43;89.98;100938.47;6216514;28;20293;-71
2021/05/27 13:16:40;;;;;;;1.55;0.60;;;;;;;8.34;89.52;100953.28;6216766;28;20190;-70
2021/05/27 13:19:45;;;;;;;0.70;0.70;;;;;;;8.37;90.71;100939.25;6215375;28;20218;-70
2021/05/27 13:22:49;;;;;;;1.48;0.57;;;;;;;8.52;91.86;100950.88;6216378;28;20187;-70
2021/05/27 13:25:54;;;;;;;0.50;0.50;;;;;;;8.56;91.42;100949.44;6216410;28;20241;-70
2021/05/27 13:28:59;;;;;;;0.70;0.70;;;;;;;8.57;88.78;100951.13;6216598;28;20224;-70
2021/05/27 13:32:03;;;;;;;0.60;0.60;;;;;;;8.67;90.98;100957.03;6216348;28;20186;-70
2021/05/27 13:35:17;;;;;;;0.63;0.60;;;;;;;8.69;89.78;100960.38;6215011;28;20202;-70
2021/05/27 13:38:22;;;;;;;0.68;0.68;;;;;;;8.67;91.00;100954.31;6216223;28;20186;-71
2021/05/27 13:41:27;;;;;;;0.55;0.55;;;;;;;8.63;90.01;100944.84;6215163;28;20265;-71
2021/05/27 13:44:34;;;;;;;0.50;0.50;;;;;;;8.56;90.17;100935.81;6216349;28;20193;-71
2021/05/27 13:47:38;;;;;;;0.50;0.50;;;;;;;8.48;90.79;100946.03;6198145;28;20226;-70
2021/05/27 13:50:45;;;;;;;0.70;0.70;;;;;;;8.76;91.17;100960.38;6214831;28;20505;-71
2021/05/27 13:53:49;;;;;;;0.60;0.60;;;;;;;8.75;91.59;100959.56;6214826;28;20473;-70
2021/05/27 13:56:53;;;;;;;0.70;0.70;;;;;;;8.62;91.18;100959.50;6197965;28;20415;-70
2021/05/27 13:59:56;;;;;;;0.70;0.70;;;;;;;8.66;91.69;100955.34;6215905;28;20192;-71
2021/05/27 14:03:00;;;;;;;0.50;0.50;;;;;;;8.70;91.29;100972.09;6215647;28;20265;-70
2021/05/27 14:06:07;;;;;;;0.50;0.50;;;;;;;8.56;91.83;100965.75;6214310;28;20582;-70
2021/05/27 14:09:10;;;;;;;1.67;0.85;;;;;;;8.49;90.91;100970.31;6214097;28;20187;-70
2021/05/27 14:12:14;;;;;;;0.60;0.60;;;;;;;8.62;92.41;100964.94;6214295;28;20485;-70
2021/05/27 14:15:19;;;;;;;0.60;0.60;;;;;;;8.57;92.24;100951.13;6214432;28;20473;-70
2021/05/27 14:18:22;;;;;;;0.50;0.50;;;;;;;8.76;91.62;100977.56;6214312;28;20474;-70
2021/05/27 14:21:27;;;;;;;0.52;0.52;;;;;;;8.64;92.17;100968.31;6213974;28;20461;-71
2021/05/27 14:24:34;;;;;;;0.60;0.60;;;;;;;8.80;92.31;100967.97;6214114;28;20186;-71
2021/05/27 14:27:38;;;;;;;0.70;0.70;;;;;;;8.87;92.10;100969.84;6214793;28;20220;-70
2021/05/27 14:30:42;;;;;;;0.60;0.60;;;;;;;8.91;91.89;100971.16;6213993;28;20210;-70
2021/05/27 14:33:46;;;;;;;0.50;0.50;;;;;;;8.91;89.61;100973.88;6214894;28;20201;-70
2021/05/27 14:36:51;;;;;;;0.60;0.60;;;;;;;8.85;90.12;100975.50;6214555;28;20217;-70
2021/05/27 14:39:55;;;;;;;1.33;0.60;;;;;;;8.90;90.60;100980.34;6213741;28;20193;-70
2021/05/27 14:42:59;;;;;;;0.63;0.63;;;;;;;9.01;90.38;100977.06;6213718;28;20376;-70
2021/05/27 14:46:03;;;;;;;0.50;0.50;;;;;;;8.98;90.47;100988.34;6214641;28;20186;-70
2021/05/27 14:49:07;;;;;;;0.60;0.60;;;;;;;8.80;89.66;100984.28;6214657;28;20186;-70
2021/05/27 14:52:12;;;;;;;0.60;0.60;;;;;;;8.88;92.41;100982.44;6213475;28;20473;-70
2021/05/27 14:55:16;;;;;;;0.50;0.50;;;;;;;8.74;90.48;100985.09;6214020;28;20218;-70
2021/05/27 14:58:19;;;;;;;0.40;0.40;;;;;;;8.68;90.68;100980.44;6196735;28;20205;-70
2021/05/27 15:01:23;;;;;;;1.80;0.60;;;;;;;8.61;90.55;100990.44;6213146;28;20217;-70
2021/05/27 15:04:27;;;;;;;0.65;0.65;;;;;;;8.75;91.09;100986.78;6213794;28;20297;-70
2021/05/27 15:07:31;;;;;;;2.42;0.68;;;;;;;8.59;90.60;100995.25;6212689;28;20520;-70